Detall de PIREP

Printer-friendly versionPDF version

[2015/11/21 08:25:00]
Flight IATA:CT0001
Pilot Number:012
Company ICAO:CAT
Aircraft Type:F50/A
PAX:50
Aircraft Registration:PAOB
Departing Airport: LEBL
Destination Airport: LEIB
Alternate Airport:LEVC
Online: VATSIM
Route:LARPA B31 TOLSO
Flight Level:F170
No Slew and time accel
No pause
Crash detect
Detect pilot in Cockpit between each 30 and 45 minutes
08:25 Zero fuel Weight: 36865 Lbs, Fuel Weight: 5328 Lbs
08:25 VATSIM:LEBL 210800Z 30018KT 9999 FEW030 17/08 Q1002 NOSIG
08:25 VATSIM:LEIB 210800Z 25024G35KT 9999 SCT030 BKN045 21/11 Q1007 NOSIG
08:26 Parking Brakes off
08:31 Take-off
08:31 Take off Weight: 42106 Lbs
08:31 Wind: 299º @ 018 Knots Heading: 253º
08:31 POS N41º 17´ 14´´ E002º 05´ 17´´
08:31 Gear Up: 122 Knots
08:31 Flaps:2 at 122 Knots
08:32 Flaps:1 at 160 Knots
08:32 Flaps:0 at 173 Knots
08:43 TOC
08:43 Fuel Weight: 4797 Lb
08:46 Wind:275º@077 Knots Heading: 183º Ground Speed: 267 Knots Altitude 16725 ft
09:00 TOD
09:00 Fuel Weight: 4293 Lb
09:01 Wind:286º@071 Knots Heading: 229º Ground Speed: 250 Knots Altitude 15265 ft
09:14 Flaps:1 at 169 Knots
09:16 Wind:259º@029 Knots Heading: 256º Ground Speed: 137 Knots Altitude 2066 ft
09:16 Flaps:2 at 166 Knots
09:17 Flaps:3 at 155 Knots
09:17 Gear Down: 153 Knots
09:18 Flaps:4 at 133 Knots
09:18 Flaps:5 at 129 Knots
09:20 Flaps:6 at 127 Knots
09:22 TouchDown:Rate -294 ft/min Speed: 106 Knots
09:23 Flaps:4 at 68 Knots
09:23 Flaps:0 at 65 Knots
09:23 VATSIM:LEIB 210900Z 25021KT 9999 SCT030 OVC045 21/10 Q1007 NOSIG
09:23 Land
09:23 Wind:259º@032 Knots
09:23 Heading: 243º
09:23 Flight Duration: 00:52
09:23 Landing Weight: 40676 Lbs
09:23 POS N38º 52´ 26´´ E001º 22´ 33´´
09:26 Parking brakes on
09:26 Block to Block Duration: 01:00
09:26 Final Fuel: 3767 Lbls
09:26 Spent Fuel: 1560 Lbls
09:26 Flight Length: 181 NM
09:26 TOD Land Length: 67 NM

Exportar CSV

Powered by Drupal - Modified by Danger4k